Terminal Aerodrome Forecast
Issued by NWS

Home | Current Version | Previous Version | Text Only | Print | Product List | Glossary On
Versions: 1 2 3 4 5 6 7 8 9 10 11 12 13 14 15 16 17 18 19 20
000
FTUS43 KDMX 231000 AAC
TAFFOD
TAF AMD
KFOD 231000Z 2310/2406 20007KT 5SM -SHRA BR OVC006
     FM231300 26006KT 3SM BR BKN005
     FM231500 28006KT P6SM SCT005 BKN030
     FM231700 28006KT P6SM SCT035
     FM232300 18005KT P6SM SKC=

USA.gov is the U.S. government's official web portal to all federal, state and local government web resources and services.